Walhain-Saint-Paul, Belgium
Current Conditions -  °F | °C
As of 2:25 PM on Friday 19 Dec 2014 (Local Time) from EBBE Reporting Station
Broken Clouds Broken Clouds  
Wind Chill: 42°   Ceiling: 1700
Heat Index: 46°   Visibility: 6mi
Dew Point: 45°   Wind: 8mph
Humidity: 93%   Direction: 290°WNW
Pressure: 29.94"   Gusts: NA
Location:  50.63°N, 4.7°E
Report Text: EBBE 191325Z 29007KT 9999 FEW006 SCT009 BKN017 08/07 Q1014 GRN GRN BECMG WHT
Loading
Personal Weather Stations






























Interactive Weather Map New forecast layout! Learn more

10-Day Weather Forecast

Advertisements
Track Severe Weather on mobile